METAR Data
IDs: Format: Raw Decoded Include TAF

Data at: 0759 UTC 01 Aug 2021

UKKM 010730Z AUTO 14002MPS 9999 // NCD 27/18 Q1010